sensor_id;sensor_type;location;lat;lon;timestamp;P1;durP1;ratioP1;P2;durP2;ratioP2
61017;SDS011;48171;51.550;5.434;2023-04-24T00:00:31;21.52;;;9.20;;
61017;SDS011;48171;51.550;5.434;2023-04-24T00:02:57;19.75;;;9.85;;
61017;SDS011;48171;51.550;5.434;2023-04-24T00:05:23;20.98;;;10.48;;
61017;SDS011;48171;51.550;5.434;2023-04-24T00:07:48;22.38;;;10.82;;
61017;SDS011;48171;51.550;5.434;2023-04-24T00:10:17;20.77;;;11.30;;
61017;SDS011;48171;51.550;5.434;2023-04-24T00:12:43;25.83;;;12.57;;
61017;SDS011;48171;51.550;5.434;2023-04-24T00:15:08;21.15;;;11.25;;
61017;SDS011;48171;51.550;5.434;2023-04-24T00:17:34;26.23;;;12.77;;
61017;SDS011;48171;51.550;5.434;2023-04-24T00:19:59;26.05;;;12.70;;
61017;SDS011;48171;51.550;5.434;2023-04-24T00:22:25;26.65;;;13.43;;
61017;SDS011;48171;51.550;5.434;2023-04-24T00:24:51;25.58;;;12.35;;
61017;SDS011;48171;51.550;5.434;2023-04-24T00:27:16;27.05;;;12.32;;
61017;SDS011;48171;51.550;5.434;2023-04-24T00:29:42;26.10;;;12.90;;
61017;SDS011;48171;51.550;5.434;2023-04-24T00:32:07;26.90;;;13.32;;
61017;SDS011;48171;51.550;5.434;2023-04-24T00:34:32;28.90;;;12.82;;
61017;SDS011;48171;51.550;5.434;2023-04-24T00:36:58;33.38;;;14.35;;
61017;SDS011;48171;51.550;5.434;2023-04-24T00:39:23;35.67;;;13.98;;
61017;SDS011;48171;51.550;5.434;2023-04-24T00:41:48;31.10;;;14.27;;
61017;SDS011;48171;51.550;5.434;2023-04-24T00:44:15;29.23;;;14.30;;
61017;SDS011;48171;51.550;5.434;2023-04-24T00:46:41;35.53;;;15.38;;
61017;SDS011;48171;51.550;5.434;2023-04-24T00:49:07;35.40;;;14.38;;
61017;SDS011;48171;51.550;5.434;2023-04-24T00:51:32;34.20;;;14.60;;
61017;SDS011;48171;51.550;5.434;2023-04-24T00:53:58;38.13;;;14.43;;
61017;SDS011;48171;51.550;5.434;2023-04-24T00:56:24;33.15;;;14.95;;
61017;SDS011;48171;51.550;5.434;2023-04-24T00:58:50;36.75;;;15.48;;
61017;SDS011;48171;51.550;5.434;2023-04-24T01:01:16;36.10;;;16.10;;
61017;SDS011;48171;51.550;5.434;2023-04-24T01:03:43;31.80;;;15.18;;
61017;SDS011;48171;51.550;5.434;2023-04-24T01:06:08;35.83;;;16.13;;
61017;SDS011;48171;51.550;5.434;2023-04-24T01:08:34;37.83;;;16.40;;
61017;SDS011;48171;51.550;5.434;2023-04-24T01:11:00;38.33;;;16.50;;
61017;SDS011;48171;51.550;5.434;2023-04-24T01:13:28;37.17;;;16.00;;
61017;SDS011;48171;51.550;5.434;2023-04-24T01:15:54;40.88;;;17.83;;
61017;SDS011;48171;51.550;5.434;2023-04-24T01:18:19;33.78;;;16.75;;
61017;SDS011;48171;51.550;5.434;2023-04-24T01:20:46;38.92;;;16.75;;
61017;SDS011;48171;51.550;5.434;2023-04-24T01:23:12;36.40;;;16.02;;
61017;SDS011;48171;51.550;5.434;2023-04-24T01:25:37;36.88;;;16.70;;
61017;SDS011;48171;51.550;5.434;2023-04-24T01:28:03;37.33;;;17.45;;
61017;SDS011;48171;51.550;5.434;2023-04-24T01:30:29;36.85;;;16.85;;
61017;SDS011;48171;51.550;5.434;2023-04-24T01:32:55;37.50;;;16.13;;
61017;SDS011;48171;51.550;5.434;2023-04-24T01:35:21;39.33;;;17.58;;
61017;SDS011;48171;51.550;5.434;2023-04-24T01:37:46;41.22;;;17.15;;
61017;SDS011;48171;51.550;5.434;2023-04-24T01:40:11;40.25;;;17.83;;
61017;SDS011;48171;51.550;5.434;2023-04-24T01:42:37;44.05;;;17.98;;
61017;SDS011;48171;51.550;5.434;2023-04-24T01:45:03;37.97;;;17.80;;
61017;SDS011;48171;51.550;5.434;2023-04-24T01:47:30;40.28;;;19.00;;
61017;SDS011;48171;51.550;5.434;2023-04-24T01:49:56;48.60;;;19.50;;
61017;SDS011;48171;51.550;5.434;2023-04-24T01:52:21;40.88;;;18.98;;
61017;SDS011;48171;51.550;5.434;2023-04-24T01:54:47;41.25;;;18.95;;
61017;SDS011;48171;51.550;5.434;2023-04-24T01:57:13;42.33;;;19.77;;
61017;SDS011;48171;51.550;5.434;2023-04-24T01:59:39;46.45;;;20.17;;
61017;SDS011;48171;51.550;5.434;2023-04-24T02:02:04;47.95;;;19.67;;
61017;SDS011;48171;51.550;5.434;2023-04-24T02:04:29;41.47;;;19.75;;
61017;SDS011;48171;51.550;5.434;2023-04-24T02:06:55;49.50;;;21.42;;
61017;SDS011;48171;51.550;5.434;2023-04-24T02:09:20;45.17;;;19.40;;
61017;SDS011;48171;51.550;5.434;2023-04-24T02:11:46;47.30;;;20.08;;
61017;SDS011;48171;51.550;5.434;2023-04-24T02:14:11;42.70;;;20.55;;
61017;SDS011;48171;51.550;5.434;2023-04-24T02:16:36;47.28;;;21.98;;
61017;SDS011;48171;51.550;5.434;2023-04-24T02:19:02;46.40;;;21.25;;
61017;SDS011;48171;51.550;5.434;2023-04-24T02:21:27;43.65;;;19.58;;
61017;SDS011;48171;51.550;5.434;2023-04-24T02:23:53;42.38;;;19.65;;
61017;SDS011;48171;51.550;5.434;2023-04-24T02:26:18;45.35;;;20.08;;
61017;SDS011;48171;51.550;5.434;2023-04-24T02:28:44;42.60;;;19.67;;
61017;SDS011;48171;51.550;5.434;2023-04-24T02:31:09;42.67;;;20.05;;
61017;SDS011;48171;51.550;5.434;2023-04-24T02:33:34;39.45;;;18.42;;
61017;SDS011;48171;51.550;5.434;2023-04-24T02:36:00;41.97;;;18.33;;
61017;SDS011;48171;51.550;5.434;2023-04-24T02:38:28;45.13;;;20.02;;
61017;SDS011;48171;51.550;5.434;2023-04-24T02:40:54;43.53;;;18.92;;
61017;SDS011;48171;51.550;5.434;2023-04-24T02:43:20;45.10;;;18.77;;
61017;SDS011;48171;51.550;5.434;2023-04-24T02:45:45;45.92;;;18.33;;
61017;SDS011;48171;51.550;5.434;2023-04-24T02:48:11;41.75;;;18.85;;
61017;SDS011;48171;51.550;5.434;2023-04-24T02:50:36;44.85;;;19.02;;
61017;SDS011;48171;51.550;5.434;2023-04-24T02:53:01;39.83;;;18.95;;
61017;SDS011;48171;51.550;5.434;2023-04-24T02:55:27;40.85;;;18.95;;
61017;SDS011;48171;51.550;5.434;2023-04-24T02:57:52;44.58;;;18.65;;
61017;SDS011;48171;51.550;5.434;2023-04-24T03:00:17;42.13;;;18.52;;
61017;SDS011;48171;51.550;5.434;2023-04-24T03:02:42;47.72;;;19.70;;
61017;SDS011;48171;51.550;5.434;2023-04-24T03:05:08;43.30;;;18.05;;
61017;SDS011;48171;51.550;5.434;2023-04-24T03:07:33;43.40;;;18.90;;
61017;SDS011;48171;51.550;5.434;2023-04-24T03:09:59;42.22;;;18.77;;
61017;SDS011;48171;51.550;5.434;2023-04-24T03:12:24;44.85;;;18.88;;
61017;SDS011;48171;51.550;5.434;2023-04-24T03:14:50;38.47;;;17.90;;
61017;SDS011;48171;51.550;5.434;2023-04-24T03:17:15;37.22;;;18.05;;
61017;SDS011;48171;51.550;5.434;2023-04-24T03:19:40;40.90;;;18.70;;
61017;SDS011;48171;51.550;5.434;2023-04-24T03:22:05;42.67;;;19.77;;
61017;SDS011;48171;51.550;5.434;2023-04-24T03:24:31;41.70;;;18.85;;
61017;SDS011;48171;51.550;5.434;2023-04-24T03:26:56;46.03;;;18.63;;
61017;SDS011;48171;51.550;5.434;2023-04-24T03:29:22;41.63;;;18.15;;
61017;SDS011;48171;51.550;5.434;2023-04-24T03:31:47;40.35;;;18.33;;
61017;SDS011;48171;51.550;5.434;2023-04-24T03:34:12;40.33;;;17.73;;
61017;SDS011;48171;51.550;5.434;2023-04-24T03:36:38;40.28;;;17.63;;
61017;SDS011;48171;51.550;5.434;2023-04-24T03:39:03;41.15;;;17.15;;
61017;SDS011;48171;51.550;5.434;2023-04-24T03:41:28;37.22;;;17.15;;
61017;SDS011;48171;51.550;5.434;2023-04-24T03:43:55;35.85;;;17.15;;
61017;SDS011;48171;51.550;5.434;2023-04-24T03:46:20;32.17;;;16.35;;
61017;SDS011;48171;51.550;5.434;2023-04-24T03:48:45;34.80;;;16.17;;
61017;SDS011;48171;51.550;5.434;2023-04-24T03:51:11;37.78;;;17.05;;
61017;SDS011;48171;51.550;5.434;2023-04-24T03:53:36;42.35;;;17.48;;
61017;SDS011;48171;51.550;5.434;2023-04-24T03:56:01;37.88;;;16.42;;
61017;SDS011;48171;51.550;5.434;2023-04-24T03:58:27;39.60;;;17.35;;
61017;SDS011;48171;51.550;5.434;2023-04-24T04:00:52;36.90;;;16.95;;
61017;SDS011;48171;51.550;5.434;2023-04-24T04:03:17;37.42;;;16.77;;
61017;SDS011;48171;51.550;5.434;2023-04-24T04:05:42;36.42;;;16.35;;
61017;SDS011;48171;51.550;5.434;2023-04-24T04:08:08;31.95;;;15.70;;
61017;SDS011;48171;51.550;5.434;2023-04-24T04:10:33;32.55;;;15.70;;
61017;SDS011;48171;51.550;5.434;2023-04-24T04:12:58;34.45;;;16.33;;
61017;SDS011;48171;51.550;5.434;2023-04-24T04:15:23;40.42;;;16.90;;
61017;SDS011;48171;51.550;5.434;2023-04-24T04:17:49;33.75;;;15.80;;
61017;SDS011;48171;51.550;5.434;2023-04-24T04:20:14;38.60;;;16.55;;
61017;SDS011;48171;51.550;5.434;2023-04-24T04:22:39;41.67;;;16.38;;
61017;SDS011;48171;51.550;5.434;2023-04-24T04:25:05;32.13;;;15.13;;
61017;SDS011;48171;51.550;5.434;2023-04-24T04:27:31;32.13;;;15.50;;
61017;SDS011;48171;51.550;5.434;2023-04-24T04:30:00;34.28;;;16.33;;
61017;SDS011;48171;51.550;5.434;2023-04-24T04:32:30;31.73;;;15.48;;
61017;SDS011;48171;51.550;5.434;2023-04-24T04:34:58;30.88;;;14.68;;
61017;SDS011;48171;51.550;5.434;2023-04-24T04:37:23;31.58;;;15.35;;
61017;SDS011;48171;51.550;5.434;2023-04-24T04:39:48;31.40;;;15.25;;
61017;SDS011;48171;51.550;5.434;2023-04-24T04:42:14;34.30;;;15.20;;
61017;SDS011;48171;51.550;5.434;2023-04-24T04:44:40;30.23;;;14.70;;
61017;SDS011;48171;51.550;5.434;2023-04-24T04:47:05;31.90;;;14.48;;
61017;SDS011;48171;51.550;5.434;2023-04-24T04:49:32;28.45;;;14.30;;
61017;SDS011;48171;51.550;5.434;2023-04-24T04:51:57;28.60;;;13.52;;
61017;SDS011;48171;51.550;5.434;2023-04-24T04:54:22;29.10;;;13.75;;
61017;SDS011;48171;51.550;5.434;2023-04-24T04:56:49;26.63;;;13.73;;
61017;SDS011;48171;51.550;5.434;2023-04-24T04:59:15;25.25;;;13.25;;
61017;SDS011;48171;51.550;5.434;2023-04-24T05:01:40;25.45;;;11.75;;
61017;SDS011;48171;51.550;5.434;2023-04-24T05:04:06;27.38;;;12.75;;
61017;SDS011;48171;51.550;5.434;2023-04-24T05:06:31;24.88;;;11.60;;
61017;SDS011;48171;51.550;5.434;2023-04-24T05:08:56;25.08;;;11.77;;
61017;SDS011;48171;51.550;5.434;2023-04-24T05:11:22;23.75;;;11.98;;
61017;SDS011;48171;51.550;5.434;2023-04-24T05:13:47;23.02;;;10.90;;
61017;SDS011;48171;51.550;5.434;2023-04-24T05:16:13;23.40;;;11.27;;
61017;SDS011;48171;51.550;5.434;2023-04-24T05:18:38;23.38;;;10.75;;
61017;SDS011;48171;51.550;5.434;2023-04-24T05:21:03;24.10;;;11.43;;
61017;SDS011;48171;51.550;5.434;2023-04-24T05:23:28;21.25;;;11.02;;
61017;SDS011;48171;51.550;5.434;2023-04-24T05:25:54;23.35;;;10.75;;
61017;SDS011;48171;51.550;5.434;2023-04-24T05:28:19;21.48;;;10.27;;
61017;SDS011;48171;51.550;5.434;2023-04-24T05:30:45;21.63;;;10.25;;
61017;SDS011;48171;51.550;5.434;2023-04-24T05:33:11;12.70;;;6.88;;
61017;SDS011;48171;51.550;5.434;2023-04-24T05:35:36;14.38;;;6.00;;
61017;SDS011;48171;51.550;5.434;2023-04-24T05:38:01;11.20;;;5.55;;
61017;SDS011;48171;51.550;5.434;2023-04-24T05:40:27;12.25;;;5.85;;
61017;SDS011;48171;51.550;5.434;2023-04-24T05:42:52;10.77;;;4.68;;
61017;SDS011;48171;51.550;5.434;2023-04-24T05:45:17;9.75;;;4.25;;
61017;SDS011;48171;51.550;5.434;2023-04-24T05:47:43;9.45;;;3.72;;
61017;SDS011;48171;51.550;5.434;2023-04-24T05:50:09;8.57;;;3.88;;
61017;SDS011;48171;51.550;5.434;2023-04-24T05:52:35;8.90;;;3.63;;
61017;SDS011;48171;51.550;5.434;2023-04-24T05:55:00;5.75;;;3.42;;
61017;SDS011;48171;51.550;5.434;2023-04-24T05:57:33;6.30;;;3.40;;
61017;SDS011;48171;51.550;5.434;2023-04-24T05:59:59;7.13;;;3.10;;
61017;SDS011;48171;51.550;5.434;2023-04-24T06:02:24;8.18;;;3.45;;
61017;SDS011;48171;51.550;5.434;2023-04-24T06:04:49;6.95;;;3.88;;
61017;SDS011;48171;51.550;5.434;2023-04-24T06:07:14;6.85;;;3.00;;
61017;SDS011;48171;51.550;5.434;2023-04-24T06:09:40;6.38;;;3.22;;
61017;SDS011;48171;51.550;5.434;2023-04-24T06:12:05;7.72;;;3.20;;
61017;SDS011;48171;51.550;5.434;2023-04-24T06:14:33;9.43;;;3.92;;
61017;SDS011;48171;51.550;5.434;2023-04-24T06:16:58;5.82;;;3.15;;
61017;SDS011;48171;51.550;5.434;2023-04-24T06:19:23;5.07;;;2.80;;
61017;SDS011;48171;51.550;5.434;2023-04-24T06:21:49;6.60;;;3.47;;
61017;SDS011;48171;51.550;5.434;2023-04-24T06:24:14;6.00;;;3.25;;
61017;SDS011;48171;51.550;5.434;2023-04-24T06:26:41;5.82;;;3.28;;
61017;SDS011;48171;51.550;5.434;2023-04-24T06:29:06;6.03;;;3.58;;
61017;SDS011;48171;51.550;5.434;2023-04-24T06:31:32;6.32;;;3.80;;
61017;SDS011;48171;51.550;5.434;2023-04-24T06:34:01;7.78;;;4.20;;
61017;SDS011;48171;51.550;5.434;2023-04-24T06:36:27;9.07;;;4.50;;
61017;SDS011;48171;51.550;5.434;2023-04-24T06:38:53;9.98;;;5.60;;
61017;SDS011;48171;51.550;5.434;2023-04-24T06:41:18;9.80;;;6.10;;
61017;SDS011;48171;51.550;5.434;2023-04-24T06:43:44;8.57;;;5.55;;
61017;SDS011;48171;51.550;5.434;2023-04-24T06:46:09;10.20;;;5.88;;
61017;SDS011;48171;51.550;5.434;2023-04-24T06:48:35;10.00;;;5.28;;
61017;SDS011;48171;51.550;5.434;2023-04-24T06:51:00;13.15;;;5.55;;
61017;SDS011;48171;51.550;5.434;2023-04-24T06:53:25;10.60;;;5.82;;
61017;SDS011;48171;51.550;5.434;2023-04-24T06:55:51;15.63;;;6.38;;
61017;SDS011;48171;51.550;5.434;2023-04-24T06:58:16;13.27;;;7.78;;
61017;SDS011;48171;51.550;5.434;2023-04-24T07:00:42;18.45;;;8.82;;
61017;SDS011;48171;51.550;5.434;2023-04-24T07:03:07;15.35;;;8.30;;
61017;SDS011;48171;51.550;5.434;2023-04-24T07:05:33;18.25;;;8.98;;
61017;SDS011;48171;51.550;5.434;2023-04-24T07:08:02;18.33;;;9.73;;
61017;SDS011;48171;51.550;5.434;2023-04-24T07:10:28;21.75;;;9.95;;
61017;SDS011;48171;51.550;5.434;2023-04-24T07:12:53;23.58;;;10.10;;
61017;SDS011;48171;51.550;5.434;2023-04-24T07:15:19;27.55;;;11.35;;
61017;SDS011;48171;51.550;5.434;2023-04-24T07:17:44;26.02;;;12.30;;
61017;SDS011;48171;51.550;5.434;2023-04-24T07:20:10;23.85;;;11.15;;
61017;SDS011;48171;51.550;5.434;2023-04-24T07:22:37;25.38;;;11.07;;
61017;SDS011;48171;51.550;5.434;2023-04-24T07:25:03;26.40;;;10.98;;
61017;SDS011;48171;51.550;5.434;2023-04-24T07:27:28;23.83;;;10.70;;
61017;SDS011;48171;51.550;5.434;2023-04-24T07:29:53;22.05;;;10.75;;
61017;SDS011;48171;51.550;5.434;2023-04-24T07:32:19;25.65;;;9.98;;
61017;SDS011;48171;51.550;5.434;2023-04-24T07:34:44;25.58;;;10.98;;
61017;SDS011;48171;51.550;5.434;2023-04-24T07:37:09;23.55;;;9.82;;
61017;SDS011;48171;51.550;5.434;2023-04-24T07:39:35;22.88;;;10.32;;
61017;SDS011;48171;51.550;5.434;2023-04-24T07:42:00;24.65;;;10.20;;
61017;SDS011;48171;51.550;5.434;2023-04-24T07:44:26;23.83;;;9.60;;
61017;SDS011;48171;51.550;5.434;2023-04-24T07:46:51;22.38;;;9.02;;
61017;SDS011;48171;51.550;5.434;2023-04-24T07:49:17;18.98;;;9.02;;
61017;SDS011;48171;51.550;5.434;2023-04-24T07:51:42;18.00;;;8.68;;
61017;SDS011;48171;51.550;5.434;2023-04-24T07:54:07;20.45;;;8.50;;
61017;SDS011;48171;51.550;5.434;2023-04-24T07:56:33;26.67;;;8.43;;
61017;SDS011;48171;51.550;5.434;2023-04-24T07:58:58;19.90;;;8.43;;
61017;SDS011;48171;51.550;5.434;2023-04-24T08:01:24;20.80;;;7.60;;
61017;SDS011;48171;51.550;5.434;2023-04-24T08:03:50;17.45;;;7.47;;
61017;SDS011;48171;51.550;5.434;2023-04-24T08:06:16;20.35;;;7.43;;
61017;SDS011;48171;51.550;5.434;2023-04-24T08:08:41;21.52;;;7.65;;
61017;SDS011;48171;51.550;5.434;2023-04-24T08:11:06;23.80;;;7.72;;
61017;SDS011;48171;51.550;5.434;2023-04-24T08:13:32;22.85;;;8.70;;
61017;SDS011;48171;51.550;5.434;2023-04-24T08:15:57;19.80;;;7.43;;
61017;SDS011;48171;51.550;5.434;2023-04-24T08:18:22;27.15;;;7.47;;
61017;SDS011;48171;51.550;5.434;2023-04-24T08:20:48;26.00;;;7.68;;
61017;SDS011;48171;51.550;5.434;2023-04-24T08:23:13;22.92;;;7.43;;
61017;SDS011;48171;51.550;5.434;2023-04-24T08:25:38;25.02;;;8.00;;
61017;SDS011;48171;51.550;5.434;2023-04-24T08:28:05;25.85;;;8.60;;
61017;SDS011;48171;51.550;5.434;2023-04-24T08:30:31;26.77;;;8.25;;
61017;SDS011;48171;51.550;5.434;2023-04-24T08:32:56;21.75;;;8.25;;
61017;SDS011;48171;51.550;5.434;2023-04-24T08:35:22;21.17;;;8.25;;
61017;SDS011;48171;51.550;5.434;2023-04-24T08:37:48;23.98;;;7.18;;
61017;SDS011;48171;51.550;5.434;2023-04-24T08:40:14;21.25;;;7.13;;
61017;SDS011;48171;51.550;5.434;2023-04-24T08:42:43;23.38;;;7.38;;
61017;SDS011;48171;51.550;5.434;2023-04-24T08:45:09;19.45;;;7.15;;
61017;SDS011;48171;51.550;5.434;2023-04-24T08:47:38;24.50;;;8.68;;
61017;SDS011;48171;51.550;5.434;2023-04-24T08:50:05;19.05;;;6.85;;
61017;SDS011;48171;51.550;5.434;2023-04-24T08:52:32;22.60;;;6.80;;
61017;SDS011;48171;51.550;5.434;2023-04-24T08:54:58;17.77;;;5.20;;
61017;SDS011;48171;51.550;5.434;2023-04-24T08:57:25;23.55;;;5.68;;
61017;SDS011;48171;51.550;5.434;2023-04-24T08:59:51;18.38;;;5.22;;
61017;SDS011;48171;51.550;5.434;2023-04-24T09:02:17;30.17;;;5.03;;
61017;SDS011;48171;51.550;5.434;2023-04-24T09:04:43;17.85;;;4.72;;
61017;SDS011;48171;51.550;5.434;2023-04-24T09:07:10;19.88;;;4.55;;
61017;SDS011;48171;51.550;5.434;2023-04-24T09:09:37;12.70;;;3.97;;
61017;SDS011;48171;51.550;5.434;2023-04-24T09:12:03;16.23;;;4.18;;
61017;SDS011;48171;51.550;5.434;2023-04-24T09:14:28;18.30;;;4.43;;
61017;SDS011;48171;51.550;5.434;2023-04-24T09:16:56;15.18;;;4.32;;
61017;SDS011;48171;51.550;5.434;2023-04-24T09:19:21;16.20;;;4.32;;
61017;SDS011;48171;51.550;5.434;2023-04-24T09:21:47;23.02;;;5.07;;
61017;SDS011;48171;51.550;5.434;2023-04-24T09:24:19;17.58;;;4.15;;
61017;SDS011;48171;51.550;5.434;2023-04-24T09:26:47;15.60;;;4.10;;
61017;SDS011;48171;51.550;5.434;2023-04-24T09:29:17;21.23;;;4.50;;
61017;SDS011;48171;51.550;5.434;2023-04-24T09:31:44;14.63;;;4.38;;
61017;SDS011;48171;51.550;5.434;2023-04-24T09:34:10;18.98;;;4.30;;
61017;SDS011;48171;51.550;5.434;2023-04-24T09:36:39;20.67;;;4.68;;
61017;SDS011;48171;51.550;5.434;2023-04-24T09:39:13;13.05;;;4.68;;
61017;SDS011;48171;51.550;5.434;2023-04-24T09:41:51;14.75;;;4.57;;
61017;SDS011;48171;51.550;5.434;2023-04-24T09:44:19;20.50;;;5.40;;
61017;SDS011;48171;51.550;5.434;2023-04-24T09:46:49;17.35;;;5.68;;
61017;SDS011;48171;51.550;5.434;2023-04-24T09:49:16;14.27;;;4.15;;
61017;SDS011;48171;51.550;5.434;2023-04-24T09:51:45;22.52;;;4.70;;
61017;SDS011;48171;51.550;5.434;2023-04-24T09:54:20;16.00;;;4.95;;
61017;SDS011;48171;51.550;5.434;2023-04-24T09:56:49;16.40;;;4.07;;
61017;SDS011;48171;51.550;5.434;2023-04-24T09:59:16;18.38;;;4.57;;
61017;SDS011;48171;51.550;5.434;2023-04-24T10:01:42;12.98;;;3.63;;
61017;SDS011;48171;51.550;5.434;2023-04-24T10:04:19;14.70;;;3.17;;
61017;SDS011;48171;51.550;5.434;2023-04-24T10:06:46;14.55;;;3.40;;
61017;SDS011;48171;51.550;5.434;2023-04-24T10:09:13;8.95;;;2.78;;
61017;SDS011;48171;51.550;5.434;2023-04-24T10:11:43;7.55;;;2.85;;
61017;SDS011;48171;51.550;5.434;2023-04-24T10:14:16;8.15;;;2.80;;
61017;SDS011;48171;51.550;5.434;2023-04-24T10:16:43;12.60;;;3.08;;
61017;SDS011;48171;51.550;5.434;2023-04-24T10:19:09;6.55;;;2.30;;
61017;SDS011;48171;51.550;5.434;2023-04-24T10:21:37;7.85;;;2.63;;
61017;SDS011;48171;51.550;5.434;2023-04-24T10:26:32;7.53;;;2.08;;
61017;SDS011;48171;51.550;5.434;2023-04-24T10:28:58;9.77;;;2.30;;
61017;SDS011;48171;51.550;5.434;2023-04-24T10:31:24;6.97;;;1.60;;
61017;SDS011;48171;51.550;5.434;2023-04-24T10:33:50;3.88;;;1.63;;
61017;SDS011;48171;51.550;5.434;2023-04-24T10:36:18;6.60;;;1.75;;
61017;SDS011;48171;51.550;5.434;2023-04-24T10:38:47;3.97;;;1.30;;
61017;SDS011;48171;51.550;5.434;2023-04-24T10:41:14;5.28;;;1.50;;
61017;SDS011;48171;51.550;5.434;2023-04-24T10:46:10;5.40;;;1.40;;
61017;SDS011;48171;51.550;5.434;2023-04-24T10:48:35;3.63;;;1.20;;
61017;SDS011;48171;51.550;5.434;2023-04-24T10:51:10;4.45;;;1.50;;
61017;SDS011;48171;51.550;5.434;2023-04-24T10:53:36;7.78;;;1.45;;
61017;SDS011;48171;51.550;5.434;2023-04-24T10:56:08;4.82;;;1.80;;
61017;SDS011;48171;51.550;5.434;2023-04-24T10:58:42;10.60;;;1.88;;
61017;SDS011;48171;51.550;5.434;2023-04-24T11:01:22;8.07;;;1.80;;
61017;SDS011;48171;51.550;5.434;2023-04-24T11:03:55;9.77;;;1.90;;
61017;SDS011;48171;51.550;5.434;2023-04-24T11:06:43;5.20;;;1.70;;
61017;SDS011;48171;51.550;5.434;2023-04-24T11:09:09;5.28;;;1.75;;
61017;SDS011;48171;51.550;5.434;2023-04-24T11:11:37;7.18;;;1.83;;
61017;SDS011;48171;51.550;5.434;2023-04-24T11:14:09;6.30;;;1.70;;
61017;SDS011;48171;51.550;5.434;2023-04-24T11:19:20;7.40;;;1.73;;
61017;SDS011;48171;51.550;5.434;2023-04-24T11:29:42;8.77;;;1.73;;
61017;SDS011;48171;51.550;5.434;2023-04-24T11:32:18;4.97;;;1.67;;
61017;SDS011;48171;51.550;5.434;2023-04-24T11:34:51;3.85;;;1.13;;
61017;SDS011;48171;51.550;5.434;2023-04-24T11:37:18;3.17;;;1.55;;
61017;SDS011;48171;51.550;5.434;2023-04-24T11:39:43;4.55;;;1.45;;
61017;SDS011;48171;51.550;5.434;2023-04-24T11:42:09;7.40;;;1.80;;
61017;SDS011;48171;51.550;5.434;2023-04-24T11:44:34;4.50;;;1.70;;
61017;SDS011;48171;51.550;5.434;2023-04-24T11:47:02;7.35;;;1.50;;
61017;SDS011;48171;51.550;5.434;2023-04-24T11:49:30;7.03;;;1.80;;
61017;SDS011;48171;51.550;5.434;2023-04-24T11:51:55;5.25;;;1.65;;
61017;SDS011;48171;51.550;5.434;2023-04-24T11:54:21;4.70;;;1.48;;
61017;SDS011;48171;51.550;5.434;2023-04-24T11:56:47;8.35;;;1.70;;
61017;SDS011;48171;51.550;5.434;2023-04-24T11:59:14;4.38;;;1.52;;
61017;SDS011;48171;51.550;5.434;2023-04-24T12:01:45;6.25;;;1.90;;
61017;SDS011;48171;51.550;5.434;2023-04-24T12:04:11;7.03;;;1.58;;
61017;SDS011;48171;51.550;5.434;2023-04-24T12:06:38;4.95;;;1.40;;
61017;SDS011;48171;51.550;5.434;2023-04-24T12:09:03;7.53;;;1.83;;
61017;SDS011;48171;51.550;5.434;2023-04-24T12:11:29;7.05;;;1.95;;
61017;SDS011;48171;51.550;5.434;2023-04-24T12:13:54;4.60;;;1.70;;
61017;SDS011;48171;51.550;5.434;2023-04-24T12:16:19;3.38;;;1.42;;
61017;SDS011;48171;51.550;5.434;2023-04-24T12:18:45;4.22;;;1.70;;
61017;SDS011;48171;51.550;5.434;2023-04-24T12:21:17;7.63;;;1.80;;
61017;SDS011;48171;51.550;5.434;2023-04-24T12:23:44;4.85;;;1.80;;
61017;SDS011;48171;51.550;5.434;2023-04-24T12:26:18;5.22;;;1.85;;
61017;SDS011;48171;51.550;5.434;2023-04-24T12:28:46;5.63;;;1.67;;
61017;SDS011;48171;51.550;5.434;2023-04-24T12:31:13;7.13;;;1.80;;
61017;SDS011;48171;51.550;5.434;2023-04-24T12:33:38;3.63;;;1.50;;
61017;SDS011;48171;51.550;5.434;2023-04-24T12:36:04;5.40;;;1.80;;
61017;SDS011;48171;51.550;5.434;2023-04-24T12:38:32;7.18;;;1.73;;
61017;SDS011;48171;51.550;5.434;2023-04-24T12:41:11;5.63;;;1.90;;
61017;SDS011;48171;51.550;5.434;2023-04-24T12:43:38;4.43;;;1.70;;
61017;SDS011;48171;51.550;5.434;2023-04-24T12:46:03;7.53;;;1.63;;
61017;SDS011;48171;51.550;5.434;2023-04-24T12:48:29;5.13;;;1.60;;
61017;SDS011;48171;51.550;5.434;2023-04-24T12:51:01;2.90;;;1.55;;
61017;SDS011;48171;51.550;5.434;2023-04-24T12:53:27;3.25;;;1.40;;
61017;SDS011;48171;51.550;5.434;2023-04-24T12:55:54;7.82;;;1.52;;
61017;SDS011;48171;51.550;5.434;2023-04-24T12:58:20;6.45;;;1.70;;
61017;SDS011;48171;51.550;5.434;2023-04-24T13:00:45;4.43;;;1.48;;
61017;SDS011;48171;51.550;5.434;2023-04-24T13:03:11;5.47;;;1.70;;
61017;SDS011;48171;51.550;5.434;2023-04-24T13:05:37;2.95;;;1.55;;
61017;SDS011;48171;51.550;5.434;2023-04-24T13:08:02;6.50;;;1.63;;
61017;SDS011;48171;51.550;5.434;2023-04-24T13:10:27;4.20;;;1.60;;
61017;SDS011;48171;51.550;5.434;2023-04-24T13:12:52;5.10;;;1.60;;
61017;SDS011;48171;51.550;5.434;2023-04-24T13:15:18;4.50;;;1.77;;
61017;SDS011;48171;51.550;5.434;2023-04-24T13:17:43;4.57;;;1.80;;
61017;SDS011;48171;51.550;5.434;2023-04-24T13:20:08;5.55;;;1.98;;
61017;SDS011;48171;51.550;5.434;2023-04-24T13:22:35;4.30;;;2.10;;
61017;SDS011;48171;51.550;5.434;2023-04-24T13:25:01;3.75;;;1.90;;
61017;SDS011;48171;51.550;5.434;2023-04-24T13:27:26;8.80;;;1.98;;
61017;SDS011;48171;51.550;5.434;2023-04-24T13:29:51;5.70;;;2.10;;
61017;SDS011;48171;51.550;5.434;2023-04-24T13:32:17;6.63;;;2.03;;
61017;SDS011;48171;51.550;5.434;2023-04-24T13:34:42;6.20;;;1.52;;
61017;SDS011;48171;51.550;5.434;2023-04-24T13:37:07;3.28;;;1.70;;
61017;SDS011;48171;51.550;5.434;2023-04-24T13:39:33;2.97;;;1.60;;
61017;SDS011;48171;51.550;5.434;2023-04-24T13:41:58;6.45;;;2.10;;
61017;SDS011;48171;51.550;5.434;2023-04-24T13:44:24;5.25;;;1.88;;
61017;SDS011;48171;51.550;5.434;2023-04-24T13:46:51;5.95;;;1.90;;
61017;SDS011;48171;51.550;5.434;2023-04-24T13:49:19;5.53;;;1.90;;
61017;SDS011;48171;51.550;5.434;2023-04-24T13:51:45;5.15;;;1.75;;
61017;SDS011;48171;51.550;5.434;2023-04-24T13:54:11;4.97;;;2.10;;
61017;SDS011;48171;51.550;5.434;2023-04-24T13:56:36;7.63;;;2.30;;
61017;SDS011;48171;51.550;5.434;2023-04-24T13:59:01;4.63;;;2.20;;
61017;SDS011;48171;51.550;5.434;2023-04-24T14:01:27;8.57;;;2.30;;
61017;SDS011;48171;51.550;5.434;2023-04-24T14:03:53;5.75;;;2.63;;
61017;SDS011;48171;51.550;5.434;2023-04-24T14:06:19;6.45;;;2.10;;
61017;SDS011;48171;51.550;5.434;2023-04-24T14:08:45;3.33;;;1.90;;
61017;SDS011;48171;51.550;5.434;2023-04-24T14:11:10;6.53;;;2.30;;
61017;SDS011;48171;51.550;5.434;2023-04-24T14:13:40;5.30;;;2.38;;
61017;SDS011;48171;51.550;5.434;2023-04-24T14:16:06;3.13;;;1.60;;
61017;SDS011;48171;51.550;5.434;2023-04-24T14:18:31;3.60;;;1.90;;
61017;SDS011;48171;51.550;5.434;2023-04-24T14:20:57;3.42;;;1.85;;
61017;SDS011;48171;51.550;5.434;2023-04-24T14:23:22;5.55;;;1.70;;
61017;SDS011;48171;51.550;5.434;2023-04-24T14:25:47;5.07;;;1.92;;
61017;SDS011;48171;51.550;5.434;2023-04-24T14:28:16;6.00;;;2.00;;
61017;SDS011;48171;51.550;5.434;2023-04-24T14:30:42;5.10;;;2.72;;
61017;SDS011;48171;51.550;5.434;2023-04-24T14:33:07;5.13;;;2.42;;
61017;SDS011;48171;51.550;5.434;2023-04-24T14:35:33;5.75;;;2.22;;
61017;SDS011;48171;51.550;5.434;2023-04-24T14:38:00;4.72;;;2.15;;
61017;SDS011;48171;51.550;5.434;2023-04-24T14:40:25;10.18;;;2.25;;
61017;SDS011;48171;51.550;5.434;2023-04-24T14:42:50;7.28;;;2.25;;